Darstellungsparameter: Aktuell verwendete Einstellungen:
Skalierung der Graphiken ... ?
xyx+y,   Skalierungsfaktor:      Skalierung: Modus: x, Faktor: 1
Darstellungszeitraum ... ?
Vom - - bis: - -   Zeitraum: 05.12.2020 - 05.01.2021
Min/Max/Avg-Anzeige ... ?
Zeige MMA aktuell
Zeige MMA Monat
Zeige MMA alles
Zeige --A aktuell
Zeige --A Monat
Zeige --A alles
Keine MMA-Anzeige
MMA:
Average (ber die Originaldaten)
MMA-Basis: 05.12.2020 - 05.01.2021
Quicknavigation für Darstellung... ?
Tage:      1T, 2T, 3T, 5T -1T -2T -3T -5T +1T +2T +3T +5T
Wochen: 1W, 2W, 3W -1W -2W -3W +1W +2W +3W
Monate: 1M, 3M, 6M -1M -3M -6M +1M +3M +6M
Jahre:    1J, 3J, 5J, 10J -1J -3J -5J -10J +1J +3J +5J +10J
Nutze für die Darstellung ... ?
Originaldaten oder ...
Mittelwerte Minima Maxima auf...
Stundenbasis Tagesbasis Wochenbasis
Monatsbasis Jahresbasis      Datenbasis: Mittelwerte auf Stundenbasis
Darstellen als:
Statistik (Auto) Statistik J:M      Darstellung:
Zur Graphik,    zurück zur Übersicht aller Sensoren.
 
Tabellarische Datenbersicht: ?
 
Sensor: Nr:Datum:Temp:Abs-Feuchte:Windchill:Wind:
Aussen-T/F 1 05-12-2020 00:00:00 4.50833 C 6.38 g/m*3 4.51 C 0 km/h
2 05-12-2020 01:00:00 4.41667 C 6.34 g/m*3 4.42 C 0 km/h
3 05-12-2020 02:00:00 4.40833 C 6.34 g/m*3 4.41 C 0 km/h
4 05-12-2020 03:00:00 4.49167 C 6.37 g/m*3 4.49 C 0 km/h
5 05-12-2020 04:00:00 4.29167 C 6.28 g/m*3 4.29 C 0 km/h
6 05-12-2020 05:00:00 3.8 C 6.05 g/m*3 3.8 C 0 km/h
7 05-12-2020 06:00:00 3.75833 C 6.07 g/m*3 3.76 C 0 km/h
8 05-12-2020 07:00:00 3.74167 C 6.06 g/m*3 3.74 C 0 km/h
9 05-12-2020 08:00:00 3.73333 C 6.06 g/m*3 3.73 C 0 km/h
10 05-12-2020 09:00:00 4.46667 C 6.36 g/m*3 4.47 C 0 km/h
11 05-12-2020 10:00:00 4.575 C 6.41 g/m*3 4.58 C 0 km/h
12 05-12-2020 11:00:00 4.45833 C 6.36 g/m*3 4.46 C 2.93333 km/h
13 05-12-2020 12:00:00 5.35833 C 6.77 g/m*3 5.36 C 1.46667 km/h
14 05-12-2020 13:00:00 5.45 C 6.44 g/m*3 5.45 C 4.81667 km/h
15 05-12-2020 14:00:00 5.69167 C 6.46 g/m*3 5.69 C 1.06667 km/h
16 05-12-2020 15:00:00 4.29167 C 5.96 g/m*3 4.29 C 3.46667 km/h
17 05-12-2020 16:00:00 3.075 C 5.59 g/m*3 3.08 C 0.53333 km/h
18 05-12-2020 17:00:00 2.70833 C 5.52 g/m*3 2.71 C 2.93333 km/h
19 05-12-2020 18:00:00 2.86667 C 5.62 g/m*3 2.87 C 0.13333 km/h
20 05-12-2020 19:00:00 3.63333 C 5.96 g/m*3 3.63 C 0 km/h
21 05-12-2020 20:00:00 3.88333 C 6.06 g/m*3 3.88 C 0 km/h
22 05-12-2020 21:00:00 4.075 C 6.13 g/m*3 4.08 C 0 km/h
23 05-12-2020 22:00:00 3.94167 C 6.08 g/m*3 3.94 C 0.53333 km/h
24 05-12-2020 23:00:00 3.44167 C 5.82 g/m*3 3.44 C 1.34167 km/h
25 06-12-2020 00:00:00 2.53333 C 5.47 g/m*3 2.53 C 0.53333 km/h
Sensor: Nr:Datum:Temp:Abs-Feuchte:Windchill:Wind:
Aussen-T/F 26 06-12-2020 01:00:00 2.24167 C 5.4 g/m*3 2.24 C 0.13333 km/h
27 06-12-2020 02:00:00 2.3 C 5.44 g/m*3 2.3 C 0 km/h
28 06-12-2020 03:00:00 2.81667 C 5.64 g/m*3 2.82 C 0.26667 km/h
29 06-12-2020 04:00:00 3.15833 C 5.77 g/m*3 3.16 C 0 km/h
30 06-12-2020 05:00:00 3.2 C 5.8 g/m*3 3.2 C 0 km/h
31 06-12-2020 06:00:00 3.29167 C 5.84 g/m*3 3.29 C 0 km/h
32 06-12-2020 07:00:00 3.3 C 5.82 g/m*3 3.3 C 0 km/h
33 06-12-2020 08:00:00 3.31667 C 5.85 g/m*3 3.32 C 0 km/h
34 06-12-2020 09:00:00 3.59167 C 6 g/m*3 3.59 C 0 km/h
35 06-12-2020 10:00:00 3.91667 C 6.13 g/m*3 3.92 C 1.06667 km/h
36 06-12-2020 11:00:00 4.18333 C 6.24 g/m*3 4.18 C 0.8 km/h
37 06-12-2020 12:00:00 4.45833 C 6.36 g/m*3 4.46 C 1.46667 km/h
38 06-12-2020 13:00:00 4.775 C 6.47 g/m*3 4.78 C 1.6 km/h
39 06-12-2020 14:00:00 4.9 C 6.48 g/m*3 4.9 C 0.4 km/h
40 06-12-2020 15:00:00 5.00833 C 6.54 g/m*3 5.01 C 0 km/h
41 06-12-2020 16:00:00 4.94167 C 6.5 g/m*3 4.94 C 0 km/h
42 06-12-2020 17:00:00 4.8 C 6.47 g/m*3 4.8 C 1.73333 km/h
43 06-12-2020 18:00:00 4.75 C 6.42 g/m*3 4.75 C 2.13333 km/h
44 06-12-2020 19:00:00 4.7 C 6.44 g/m*3 4.7 C 0.66667 km/h
45 06-12-2020 20:00:00 4.625 C 6.4 g/m*3 4.63 C 1.6 km/h
46 06-12-2020 21:00:00 4.575 C 6.41 g/m*3 4.58 C 2 km/h
47 06-12-2020 22:00:00 4.5 C 6.38 g/m*3 4.5 C 0 km/h
48 06-12-2020 23:00:00 4.41667 C 6.34 g/m*3 4.42 C 0 km/h
49 07-12-2020 00:00:00 4.325 C 6.29 g/m*3 4.33 C 0.8 km/h
50 07-12-2020 01:00:00 4.3 C 6.29 g/m*3 4.3 C 0.8 km/h
Sensor: Nr:Datum:Temp:Abs-Feuchte:Windchill:Wind:
Aussen-T/F 51 07-12-2020 02:00:00 4.20833 C 6.25 g/m*3 4.21 C 0.66667 km/h
52 07-12-2020 03:00:00 4.1 C 6.21 g/m*3 4.1 C 1.73333 km/h
53 07-12-2020 04:00:00 4 C 6.17 g/m*3 4 C 0.93333 km/h
54 07-12-2020 05:00:00 3.875 C 6.12 g/m*3 3.88 C 0.66667 km/h
55 07-12-2020 06:00:00 3.9 C 6.13 g/m*3 3.9 C 3.2 km/h
56 07-12-2020 07:00:00 3.81667 C 6.09 g/m*3 3.82 C 1.46667 km/h
57 07-12-2020 08:00:00 3.825 C 6.1 g/m*3 3.83 C 4.80833 km/h
58 07-12-2020 09:00:00 3.94167 C 6.14 g/m*3 2.85 C 5.08333 km/h
59 07-12-2020 10:00:00 4.46667 C 6.36 g/m*3 4.47 C 4.13333 km/h
60 07-12-2020 11:00:00 5.05 C 6.58 g/m*3 3.18 C 8.05 km/h
61 07-12-2020 12:00:00 5.55833 C 6.63 g/m*3 3.55 C 9 km/h
62 07-12-2020 13:00:00 6.125 C 6.58 g/m*3 4.15 C 9.29167 km/h
63 07-12-2020 14:00:00 6.28333 C 6.56 g/m*3 6.28 C 3.60833 km/h
64 07-12-2020 15:00:00 5.9 C 6.49 g/m*3 5.9 C 2.26667 km/h
65 07-12-2020 16:00:00 5.325 C 6.37 g/m*3 5.33 C 1.06667 km/h
66 07-12-2020 17:00:00 4.86667 C 6.29 g/m*3 4.87 C 1.06667 km/h
67 07-12-2020 18:00:00 4.44167 C 6.15 g/m*3 4.44 C 0.8 km/h
68 07-12-2020 19:00:00 3.15833 C 5.64 g/m*3 3.16 C 3.2 km/h
69 07-12-2020 20:00:00 1.88333 C 5.21 g/m*3 1.88 C 4.4 km/h
70 07-12-2020 21:00:00 1.85 C 5.27 g/m*3 1.85 C 1.46667 km/h
71 07-12-2020 22:00:00 2.51667 C 5.52 g/m*3 2.52 C 0 km/h
72 07-12-2020 23:00:00 2.80833 C 5.63 g/m*3 2.81 C 0 km/h
73 08-12-2020 00:00:00 3.075 C 5.74 g/m*3 3.08 C 0 km/h
74 08-12-2020 01:00:00 3.10833 C 5.75 g/m*3 3.11 C 0 km/h
75 08-12-2020 02:00:00 3.00833 C 5.72 g/m*3 3.01 C 0 km/h
Sensor: Nr:Datum:Temp:Abs-Feuchte:Windchill:Wind:
Aussen-T/F 76 08-12-2020 03:00:00 2.875 C 5.69 g/m*3 2.88 C 0.26667 km/h
77 08-12-2020 04:00:00 3.225 C 5.86 g/m*3 3.23 C 0 km/h
78 08-12-2020 05:00:00 3.11667 C 5.76 g/m*3 3.12 C 0.8 km/h
79 08-12-2020 06:00:00 2.93333 C 5.67 g/m*3 2.93 C 0.66667 km/h
80 08-12-2020 07:00:00 2.9 C 5.61 g/m*3 2.9 C 0 km/h
81 08-12-2020 08:00:00 2.66667 C 5.49 g/m*3 2.67 C 0.4 km/h
82 08-12-2020 09:00:00 2.75833 C 5.56 g/m*3 2.76 C 0 km/h
83 08-12-2020 10:00:00 3.40833 C 5.71 g/m*3 3.41 C 3.75 km/h
84 08-12-2020 11:00:00 4.35833 C 5.81 g/m*3 4.36 C 4.275 km/h
85 08-12-2020 12:00:00 4.95 C 5.79 g/m*3 4.95 C 4.55833 km/h
86 08-12-2020 13:00:00 5.35833 C 5.83 g/m*3 4.36 C 5.35833 km/h
87 08-12-2020 14:00:00 5.71667 C 5.9 g/m*3 5.72 C 4.81667 km/h
88 08-12-2020 15:00:00 5.78333 C 6.05 g/m*3 5.78 C 0.93333 km/h
89 08-12-2020 16:00:00 5.175 C 6.07 g/m*3 5.18 C 0.66667 km/h
90 08-12-2020 17:00:00 4.45 C 5.97 g/m*3 4.45 C 1.6 km/h
91 08-12-2020 18:00:00 3.625 C 5.73 g/m*3 3.63 C 1.2 km/h
92 08-12-2020 19:00:00 2.8 C 5.46 g/m*3 2.8 C 0.26667 km/h
93 08-12-2020 20:00:00 2.3 C 5.33 g/m*3 2.3 C 0 km/h
94 08-12-2020 21:00:00 1.79167 C 5.17 g/m*3 1.79 C 0 km/h
95 08-12-2020 22:00:00 0.94167 C 4.91 g/m*3 0.94 C 0 km/h
96 08-12-2020 23:00:00 0.475 C 4.76 g/m*3 0.48 C 0 km/h
97 09-12-2020 00:00:00 0.175 C 4.68 g/m*3 0.18 C 0 km/h
98 09-12-2020 01:00:00 0.84167 C 4.93 g/m*3 0.84 C 0 km/h
99 09-12-2020 02:00:00 1.35833 C 5.11 g/m*3 1.36 C 0 km/h
100 09-12-2020 03:00:00 1.69167 C 5.26 g/m*3 1.69 C 0 km/h
Sensor: Nr:Datum:Temp:Abs-Feuchte:Windchill:Wind:
Aussen-T/F 101 09-12-2020 04:00:00 2.31667 C 5.51 g/m*3 2.32 C 1.73333 km/h
102 09-12-2020 05:00:00 2.80833 C 5.68 g/m*3 2.81 C 3.20833 km/h
103 09-12-2020 06:00:00 3 C 5.66 g/m*3 3 C 3.34167 km/h
104 09-12-2020 07:00:00 3.175 C 5.57 g/m*3 1.66 C 5.90833 km/h
105 09-12-2020 08:00:00 3.24167 C 5.54 g/m*3 3.24 C 3.20833 km/h
106 09-12-2020 09:00:00 3.21667 C 5.55 g/m*3 3.22 C 0.26667 km/h
107 09-12-2020 10:00:00 3.425 C 5.62 g/m*3 3.43 C 0.13333 km/h
108 09-12-2020 11:00:00 3.75 C 5.66 g/m*3 3.75 C 0.66667 km/h
109 09-12-2020 12:00:00 4.16667 C 5.74 g/m*3 4.17 C 0.8 km/h
110 09-12-2020 13:00:00 4.59167 C 5.78 g/m*3 3.34 C 5.75833 km/h
111 09-12-2020 14:00:00 4.525 C 5.53 g/m*3 2.42 C 8.6 km/h
112 09-12-2020 15:00:00 3.775 C 5.32 g/m*3 2.4 C 5.75833 km/h
113 09-12-2020 16:00:00 2.30833 C 5 g/m*3 2.31 C 4.13333 km/h
114 09-12-2020 17:00:00 0.85833 C 4.69 g/m*3 0.86 C 2.13333 km/h
115 09-12-2020 18:00:00 -0.05833 C 4.47 g/m*3 -0.06 C 1.2 km/h
116 09-12-2020 19:00:00 -0.25833 C 4.49 g/m*3 -0.26 C 3.33333 km/h
117 09-12-2020 20:00:00 0.31667 C 4.7 g/m*3 0.32 C 1.6 km/h
118 09-12-2020 21:00:00 0.70833 C 4.8 g/m*3 0.71 C 1.06667 km/h
119 09-12-2020 22:00:00 1.03333 C 4.86 g/m*3 1.03 C 1.2 km/h
120 09-12-2020 23:00:00 1.19167 C 4.87 g/m*3 1.19 C 1.6 km/h
121 10-12-2020 00:00:00 1.36667 C 4.88 g/m*3 1.37 C 1.06667 km/h
122 10-12-2020 01:00:00 1.41667 C 4.9 g/m*3 1.42 C 0.53333 km/h
123 10-12-2020 02:00:00 1.55833 C 4.95 g/m*3 1.56 C 0.66667 km/h
124 10-12-2020 03:00:00 1.59167 C 4.94 g/m*3 1.59 C 1.33333 km/h
125 10-12-2020 04:00:00 0.81667 C 4.67 g/m*3 0.82 C 1.2 km/h
Sensor: Nr:Datum:Temp:Abs-Feuchte:Windchill:Wind:
Aussen-T/F 126 10-12-2020 05:00:00 -0.3 C 4.39 g/m*3 -0.3 C 0.26667 km/h
127 10-12-2020 06:00:00 -0.875 C 4.28 g/m*3 -0.88 C 0 km/h
128 10-12-2020 07:00:00 -1.375 C 4.14 g/m*3 -1.38 C 0 km/h
129 10-12-2020 08:00:00 -1.78333 C 4.06 g/m*3 -1.78 C 0 km/h
130 10-12-2020 09:00:00 -1.85 C 4.05 g/m*3 -1.85 C 0 km/h
131 10-12-2020 10:00:00 -1.39167 C 4.22 g/m*3 -1.39 C 0 km/h
132 10-12-2020 11:00:00 -0.50833 C 4.49 g/m*3 -0.51 C 2.4 km/h
133 10-12-2020 12:00:00 0.05 C 4.67 g/m*3 0.05 C 1.06667 km/h
134 10-12-2020 13:00:00 0.46667 C 4.82 g/m*3 0.47 C 0.26667 km/h
135 10-12-2020 14:00:00 1.175 C 5.05 g/m*3 1.18 C 0.8 km/h
136 10-12-2020 15:00:00 1.1 C 4.9 g/m*3 1.1 C 1.46667 km/h
137 10-12-2020 16:00:00 1.175 C 4.84 g/m*3 1.18 C 0.26667 km/h
138 10-12-2020 17:00:00 0.925 C 4.74 g/m*3 0.93 C 0 km/h
139 10-12-2020 18:00:00 0.74167 C 4.67 g/m*3 0.74 C 0 km/h
140 10-12-2020 19:00:00 0.63333 C 4.67 g/m*3 0.63 C 0 km/h
141 10-12-2020 20:00:00 0.81667 C 4.77 g/m*3 0.82 C 0 km/h
142 10-12-2020 21:00:00 0.99167 C 4.82 g/m*3 0.99 C 0.26667 km/h
143 10-12-2020 22:00:00 1.175 C 4.89 g/m*3 1.18 C 0.13333 km/h
144 10-12-2020 23:00:00 1.23333 C 4.87 g/m*3 1.23 C 0.8 km/h
145 11-12-2020 00:00:00 1.39167 C 4.9 g/m*3 1.39 C 0.26667 km/h
146 11-12-2020 01:00:00 1.2 C 4.82 g/m*3 1.2 C 0 km/h
147 11-12-2020 02:00:00 0.325 C 4.59 g/m*3 0.33 C 0.66667 km/h
148 11-12-2020 03:00:00 0.925 C 4.82 g/m*3 0.93 C 2.54167 km/h
149 11-12-2020 04:00:00 0.65833 C 4.69 g/m*3 0.66 C 1.2 km/h
150 11-12-2020 05:00:00 0.15833 C 4.57 g/m*3 0.16 C 1.86667 km/h
Sensor: Nr:Datum:Temp:Abs-Feuchte:Windchill:Wind:
Aussen-T/F 151 11-12-2020 06:00:00 0.54167 C 4.74 g/m*3 0.54 C 4.55 km/h
152 11-12-2020 07:00:00 1.64167 C 4.93 g/m*3 1.64 C 3.34167 km/h
153 11-12-2020 08:00:00 2.14167 C 4.96 g/m*3 2.14 C 4.825 km/h
154 11-12-2020 09:00:00 2.575 C 5.07 g/m*3 0.97 C 5.9 km/h
155 11-12-2020 10:00:00 3.125 C 5.21 g/m*3 3.13 C 4.00833 km/h
156 11-12-2020 11:00:00 3.44167 C 5.38 g/m*3 1.83 C 6.29167 km/h
157 11-12-2020 12:00:00 3.7 C 5.54 g/m*3 2.47 C 5.34167 km/h
158 11-12-2020 13:00:00 4.44167 C 5.66 g/m*3 2.85 C 6.71667 km/h
159 11-12-2020 14:00:00 4.49167 C 5.58 g/m*3 2.28 C 9.025 km/h
160 11-12-2020 15:00:00 4.05833 C 5.56 g/m*3 2.16 C 7.51667 km/h
161 11-12-2020 16:00:00 3.63333 C 5.58 g/m*3 1.91 C 6.71667 km/h
162 11-12-2020 17:00:00 3.71667 C 5.66 g/m*3 1.47 C 8.58333 km/h
163 11-12-2020 18:00:00 3.68333 C 5.71 g/m*3 2.15 C 6.16667 km/h
164 11-12-2020 19:00:00 3.79167 C 5.76 g/m*3 2.01 C 6.98333 km/h
165 11-12-2020 20:00:00 3.94167 C 5.83 g/m*3 3.94 C 1.6 km/h
166 11-12-2020 21:00:00 3.925 C 5.86 g/m*3 3.93 C 0 km/h
167 11-12-2020 22:00:00 3.825 C 5.85 g/m*3 3.83 C 0 km/h
168 11-12-2020 23:00:00 3.85 C 5.92 g/m*3 3.85 C 0 km/h
169 12-12-2020 00:00:00 3.81667 C 5.94 g/m*3 3.82 C 0.4 km/h
170 12-12-2020 01:00:00 4.05 C 6.06 g/m*3 4.05 C 0.66667 km/h
171 12-12-2020 02:00:00 4.40833 C 6.22 g/m*3 4.41 C 1.2 km/h
172 12-12-2020 03:00:00 4.80833 C 6.38 g/m*3 4.81 C 0 km/h
173 12-12-2020 04:00:00 4.9 C 6.41 g/m*3 4.9 C 0 km/h
174 12-12-2020 05:00:00 4.90833 C 6.42 g/m*3 4.91 C 0 km/h
175 12-12-2020 06:00:00 5.05833 C 6.48 g/m*3 5.06 C 0 km/h
Sensor: Nr:Datum:Temp:Abs-Feuchte:Windchill:Wind:
Aussen-T/F 176 12-12-2020 07:00:00 5.15 C 6.58 g/m*3 5.15 C 0.4 km/h
177 12-12-2020 08:00:00 5.28333 C 6.65 g/m*3 5.28 C 0 km/h
178 12-12-2020 09:00:00 5.625 C 6.8 g/m*3 5.63 C 0 km/h
179 12-12-2020 10:00:00 6.16667 C 7.03 g/m*3 6.17 C 0 km/h
180 12-12-2020 11:00:00 6.80833 C 7.18 g/m*3 6.81 C 0 km/h
181 12-12-2020 12:00:00 7.4 C 7.31 g/m*3 7.4 C 0.4 km/h
182 12-12-2020 13:00:00 7.7 C 7.38 g/m*3 7.7 C 0.66667 km/h
183 12-12-2020 14:00:00 7.68333 C 7.44 g/m*3 7.68 C 0.26667 km/h
184 12-12-2020 15:00:00 7.475 C 7.53 g/m*3 7.48 C 0 km/h
185 12-12-2020 16:00:00 7.2 C 7.43 g/m*3 7.2 C 0 km/h
186 12-12-2020 17:00:00 6.7 C 7.21 g/m*3 6.7 C 0 km/h
187 12-12-2020 18:00:00 6.66667 C 7.23 g/m*3 6.67 C 0 km/h
188 12-12-2020 19:00:00 6.36667 C 7.12 g/m*3 6.37 C 0 km/h
189 12-12-2020 20:00:00 6.66667 C 7.28 g/m*3 6.67 C 0.13333 km/h
190 12-12-2020 21:00:00 6.675 C 7.29 g/m*3 6.68 C 0 km/h
191 12-12-2020 22:00:00 6.55 C 7.27 g/m*3 6.55 C 0 km/h
192 12-12-2020 23:00:00 6.2 C 7.1 g/m*3 6.2 C 0 km/h
193 13-12-2020 00:00:00 6.35833 C 7.21 g/m*3 6.36 C 0 km/h
194 13-12-2020 01:00:00 6.18333 C 7.13 g/m*3 6.18 C 0 km/h
195 13-12-2020 02:00:00 6.40833 C 7.23 g/m*3 6.41 C 0 km/h
196 13-12-2020 03:00:00 6.83333 C 7.43 g/m*3 6.83 C 0.13333 km/h
197 13-12-2020 04:00:00 7.23333 C 7.63 g/m*3 7.23 C 2.8 km/h
198 13-12-2020 05:00:00 7.3 C 7.66 g/m*3 7.3 C 0 km/h
199 13-12-2020 06:00:00 7.275 C 7.65 g/m*3 7.28 C 1.46667 km/h
200 13-12-2020 07:00:00 7.30833 C 7.67 g/m*3 7.31 C 2.53333 km/h
Sensor: Nr:Datum:Temp:Abs-Feuchte:Windchill:Wind:
Aussen-T/F 201 13-12-2020 08:00:00 7.21667 C 7.62 g/m*3 7.22 C 2.4 km/h
202 13-12-2020 09:00:00 7.24167 C 7.64 g/m*3 7.24 C 1.2 km/h
203 13-12-2020 10:00:00 6.45833 C 7.25 g/m*3 6.46 C 2.53333 km/h
204 13-12-2020 11:00:00 6.39167 C 7.22 g/m*3 5.31 C 6.03333 km/h
205 13-12-2020 12:00:00 6.6 C 7.2 g/m*3 5.47 C 6.31667 km/h
206 13-12-2020 13:00:00 7.825 C 7.25 g/m*3 7.09 C 5.61667 km/h
207 13-12-2020 14:00:00 7.675 C 7.03 g/m*3 7.68 C 4.28333 km/h
208 13-12-2020 15:00:00 6.46667 C 6.66 g/m*3 6.47 C 4.26667 km/h
209 13-12-2020 16:00:00 5.325 C 6.31 g/m*3 5.33 C 4.93333 km/h
210 13-12-2020 17:00:00 4.04167 C 5.9 g/m*3 4.04 C 4.8 km/h
211 13-12-2020 18:00:00 3.5 C 5.79 g/m*3 3.5 C 0 km/h
212 13-12-2020 19:00:00 3.6 C 5.88 g/m*3 3.6 C 0 km/h
213 13-12-2020 20:00:00 3.66667 C 5.93 g/m*3 3.67 C 0.4 km/h
214 13-12-2020 21:00:00 4.24167 C 6.16 g/m*3 4.24 C 1.06667 km/h
215 13-12-2020 22:00:00 3.49167 C 5.78 g/m*3 3.49 C 1.73333 km/h
216 13-12-2020 23:00:00 3.15 C 5.69 g/m*3 3.15 C 2.80833 km/h
217 14-12-2020 00:00:00 3.3 C 5.78 g/m*3 3.3 C 2.8 km/h
218 14-12-2020 01:00:00 3.90833 C 6.02 g/m*3 3.91 C 0 km/h
219 14-12-2020 02:00:00 4.44167 C 6.15 g/m*3 4.44 C 2 km/h
220 14-12-2020 03:00:00 4.04167 C 6 g/m*3 4.04 C 1.33333 km/h
221 14-12-2020 04:00:00 4.78333 C 6.36 g/m*3 4.78 C 0.26667 km/h
222 14-12-2020 05:00:00 5.15833 C 6.52 g/m*3 5.16 C 0 km/h
223 14-12-2020 06:00:00 5.3 C 6.52 g/m*3 5.3 C 0 km/h
224 14-12-2020 07:00:00 5.50833 C 6.59 g/m*3 5.51 C 0.13333 km/h
225 14-12-2020 08:00:00 5.675 C 6.6 g/m*3 5.68 C 1.06667 km/h
Sensor: Nr:Datum:Temp:Abs-Feuchte:Windchill:Wind:
Aussen-T/F 226 14-12-2020 09:00:00 6.21667 C 6.66 g/m*3 6.22 C 1.46667 km/h
227 14-12-2020 10:00:00 7.025 C 6.78 g/m*3 7.03 C 0.53333 km/h
228 14-12-2020 11:00:00 6.55833 C 6.71 g/m*3 6.56 C 0.93333 km/h
229 14-12-2020 12:00:00 6.48333 C 6.79 g/m*3 6.48 C 3.34167 km/h
230 14-12-2020 13:00:00 7.775 C 7.24 g/m*3 7.78 C 1.2 km/h
231 14-12-2020 14:00:00 9.05 C 7.22 g/m*3 9.05 C 2.26667 km/h
232 14-12-2020 15:00:00 8.89167 C 7.22 g/m*3 8.89 C 1.075 km/h
233 14-12-2020 16:00:00 7.40833 C 6.8 g/m*3 7.41 C 2.66667 km/h
234 14-12-2020 17:00:00 6.05 C 6.49 g/m*3 6.05 C 1.06667 km/h
235 14-12-2020 18:00:00 5.85833 C 6.51 g/m*3 5.86 C 0.8 km/h
236 14-12-2020 19:00:00 6.05 C 6.6 g/m*3 6.05 C 2.26667 km/h
237 14-12-2020 20:00:00 6.10833 C 6.65 g/m*3 6.11 C 0.13333 km/h
238 14-12-2020 21:00:00 6.28333 C 6.67 g/m*3 6.28 C 0.4 km/h
239 14-12-2020 22:00:00 7.24167 C 6.76 g/m*3 7.24 C 3.61667 km/h
240 14-12-2020 23:00:00 6.94167 C 6.71 g/m*3 6.94 C 0.26667 km/h
241 15-12-2020 00:00:00 6.70833 C 6.76 g/m*3 6.71 C 0.53333 km/h
242 15-12-2020 01:00:00 6.75 C 6.94 g/m*3 6.75 C 2 km/h
243 15-12-2020 02:00:00 6.775 C 7.11 g/m*3 6.78 C 1.2 km/h
244 15-12-2020 03:00:00 6.8 C 7.22 g/m*3 6.8 C 2.4 km/h
245 15-12-2020 04:00:00 6.8 C 7.27 g/m*3 6.8 C 0.8 km/h
246 15-12-2020 05:00:00 6.78333 C 7.33 g/m*3 6.78 C 0 km/h
247 15-12-2020 06:00:00 6.775 C 7.33 g/m*3 6.78 C 0 km/h
248 15-12-2020 07:00:00 6.73333 C 7.31 g/m*3 6.73 C 0.13333 km/h
249 15-12-2020 08:00:00 6.56667 C 7.26 g/m*3 6.57 C 0 km/h
250 15-12-2020 09:00:00 6.96667 C 7.5 g/m*3 6.97 C 0 km/h
Sensor: Nr:Datum:Temp:Abs-Feuchte:Windchill:Wind:
Aussen-T/F 251 15-12-2020 10:00:00 7.66667 C 7.85 g/m*3 7.67 C 0.66667 km/h
252 15-12-2020 11:00:00 8.45 C 8.26 g/m*3 8.45 C 1.06667 km/h
253 15-12-2020 12:00:00 9.00833 C 8.56 g/m*3 9.01 C 0.93333 km/h
254 15-12-2020 13:00:00 9.7 C 8.94 g/m*3 9.7 C 0 km/h
255 15-12-2020 14:00:00 9.80833 C 9 g/m*3 9.81 C 0 km/h
256 15-12-2020 15:00:00 9.91667 C 9.07 g/m*3 9.92 C 0 km/h
257 15-12-2020 16:00:00 9.86667 C 9.04 g/m*3 9.87 C 0.26667 km/h
258 15-12-2020 17:00:00 9.75833 C 8.98 g/m*3 9.76 C 0 km/h
259 15-12-2020 18:00:00 9.79167 C 8.99 g/m*3 9.79 C 2.8 km/h
260 15-12-2020 19:00:00 8.9 C 8.5 g/m*3 8.9 C 3.33333 km/h
261 15-12-2020 20:00:00 7.90833 C 7.97 g/m*3 7.91 C 2.675 km/h
262 15-12-2020 21:00:00 7.10833 C 7.56 g/m*3 7.11 C 1.86667 km/h
263 15-12-2020 22:00:00 6.225 C 7.14 g/m*3 6.23 C 0.13333 km/h
264 15-12-2020 23:00:00 5.91667 C 7.01 g/m*3 5.92 C 0.13333 km/h
265 16-12-2020 00:00:00 6.625 C 7.37 g/m*3 6.63 C 0.13333 km/h
266 16-12-2020 01:00:00 6.325 C 7.19 g/m*3 6.33 C 0.13333 km/h
267 16-12-2020 02:00:00 6.41667 C 7.3 g/m*3 6.42 C 0.26667 km/h
268 16-12-2020 03:00:00 6.73333 C 7.46 g/m*3 6.73 C 0.13333 km/h
269 16-12-2020 04:00:00 6.70833 C 7.45 g/m*3 6.71 C 0 km/h
270 16-12-2020 05:00:00 6.3 C 7.19 g/m*3 6.3 C 0 km/h
271 16-12-2020 06:00:00 6.425 C 7.3 g/m*3 6.43 C 0 km/h
272 16-12-2020 07:00:00 6.50833 C 7.35 g/m*3 6.51 C 0.13333 km/h
273 16-12-2020 08:00:00 7.15833 C 7.67 g/m*3 7.16 C 0 km/h
274 16-12-2020 09:00:00 7.44167 C 7.81 g/m*3 7.44 C 0 km/h
275 16-12-2020 10:00:00 8.43333 C 8.33 g/m*3 8.43 C 0.13333 km/h
Sensor: Nr:Datum:Temp:Abs-Feuchte:Windchill:Wind:
Aussen-T/F 276 16-12-2020 11:00:00 9.43333 C 8.88 g/m*3 9.43 C 0.4 km/h
277 16-12-2020 12:00:00 9.89167 C 9.15 g/m*3 9.89 C 4.275 km/h
278 16-12-2020 13:00:00 9.91667 C 9.06 g/m*3 9.92 C 4.41667 km/h
279 16-12-2020 14:00:00 9.76667 C 8.85 g/m*3 9.77 C 2.93333 km/h
280 16-12-2020 15:00:00 9.46667 C 8.65 g/m*3 9.47 C 0.4 km/h
281 16-12-2020 16:00:00 7.875 C 7.79 g/m*3 7.88 C 1.6 km/h
282 16-12-2020 17:00:00 7.125 C 7.51 g/m*3 7.13 C 2.93333 km/h
283 16-12-2020 18:00:00 6.875 C 7.41 g/m*3 6.88 C 3.06667 km/h
284 16-12-2020 19:00:00 7 C 7.52 g/m*3 7 C 2.13333 km/h
285 16-12-2020 20:00:00 6.71667 C 7.38 g/m*3 6.72 C 2 km/h
286 16-12-2020 21:00:00 6.31667 C 7.19 g/m*3 6.32 C 2.4 km/h
287 16-12-2020 22:00:00 6.85833 C 7.47 g/m*3 6.86 C 2.8 km/h
288 16-12-2020 23:00:00 7.23333 C 7.67 g/m*3 7.23 C 1.73333 km/h
289 17-12-2020 00:00:00 7.04167 C 7.54 g/m*3 7.04 C 2 km/h
290 17-12-2020 01:00:00 6.53333 C 7.29 g/m*3 6.53 C 2.13333 km/h
291 17-12-2020 02:00:00 6.225 C 7.16 g/m*3 6.23 C 0.66667 km/h
292 17-12-2020 03:00:00 7.05833 C 7.62 g/m*3 7.06 C 3.33333 km/h
293 17-12-2020 04:00:00 7.25 C 7.72 g/m*3 7.25 C 0.8 km/h
294 17-12-2020 05:00:00 7.2 C 7.69 g/m*3 7.2 C 1.86667 km/h
295 17-12-2020 06:00:00 7.25 C 7.7 g/m*3 7.25 C 2 km/h
296 17-12-2020 07:00:00 6.79167 C 7.45 g/m*3 6.79 C 1.2 km/h
297 17-12-2020 08:00:00 7.03333 C 7.61 g/m*3 7.03 C 0.66667 km/h
298 17-12-2020 09:00:00 7.79167 C 7.99 g/m*3 7.79 C 0.53333 km/h
299 17-12-2020 10:00:00 8.94167 C 8.61 g/m*3 8.94 C 2.80833 km/h
300 17-12-2020 11:00:00 9.04167 C 8.66 g/m*3 9.04 C 4.00833 km/h
Sensor: Nr:Datum:Temp:Abs-Feuchte:Windchill:Wind:
Aussen-T/F 301 17-12-2020 12:00:00 8.85833 C 8.4 g/m*3 7.71 C 7.8 km/h
302 17-12-2020 13:00:00 9.70833 C 8.36 g/m*3 8.34 C 9.65833 km/h
303 17-12-2020 14:00:00 10.175 C 8.27 g/m*3 9.2 C 8.05833 km/h
304 17-12-2020 15:00:00 9.58333 C 7.92 g/m*3 8.48 C 8.19167 km/h
305 17-12-2020 16:00:00 8.56667 C 7.57 g/m*3 7.57 C 6.95833 km/h
306 17-12-2020 17:00:00 7.29167 C 7.21 g/m*3 6.4 C 5.86667 km/h
307 17-12-2020 18:00:00 6.69167 C 7.11 g/m*3 6.69 C 3.86667 km/h
308 17-12-2020 19:00:00 5.05833 C 6.37 g/m*3 5.06 C 0.53333 km/h
309 17-12-2020 20:00:00 4.93333 C 6.46 g/m*3 4.93 C 3.2 km/h
310 17-12-2020 21:00:00 5.03333 C 6.54 g/m*3 5.03 C 0.8 km/h
311 17-12-2020 22:00:00 4.85 C 6.46 g/m*3 4.85 C 0.26667 km/h
312 17-12-2020 23:00:00 4.63333 C 6.39 g/m*3 4.63 C 0 km/h
313 18-12-2020 00:00:00 4.14167 C 6.18 g/m*3 4.14 C 0 km/h
314 18-12-2020 01:00:00 4.53333 C 6.39 g/m*3 4.53 C 0.53333 km/h
315 18-12-2020 02:00:00 4.24167 C 6.26 g/m*3 4.24 C 0 km/h
316 18-12-2020 03:00:00 3.4 C 5.9 g/m*3 3.4 C 0.13333 km/h
317 18-12-2020 04:00:00 4.05 C 6.19 g/m*3 4.05 C 0.26667 km/h
318 18-12-2020 05:00:00 3.79167 C 6.07 g/m*3 3.79 C 0.13333 km/h
319 18-12-2020 06:00:00 3.025 C 5.78 g/m*3 3.03 C 0 km/h
320 18-12-2020 07:00:00 2.59167 C 5.61 g/m*3 2.59 C 0.13333 km/h
321 18-12-2020 08:00:00 2.35 C 5.52 g/m*3 2.35 C 0 km/h
322 18-12-2020 09:00:00 2.45 C 5.56 g/m*3 2.45 C 0 km/h
323 18-12-2020 10:00:00 2.36667 C 5.53 g/m*3 2.37 C 0 km/h
324 18-12-2020 11:00:00 2.875 C 5.73 g/m*3 2.88 C 0.26667 km/h
325 18-12-2020 12:00:00 4.3 C 6.36 g/m*3 4.3 C 2.53333 km/h
Sensor: Nr:Datum:Temp:Abs-Feuchte:Windchill:Wind:
Aussen-T/F 326 18-12-2020 13:00:00 6.65833 C 7.43 g/m*3 6.66 C 0 km/h
327 18-12-2020 14:00:00 6.8 C 7.5 g/m*3 6.8 C 1.73333 km/h
328 18-12-2020 15:00:00 5.925 C 7.03 g/m*3 5.93 C 3.2 km/h
329 18-12-2020 16:00:00 5.38333 C 6.78 g/m*3 5.38 C 3.49167 km/h
330 18-12-2020 17:00:00 5.66667 C 6.92 g/m*3 5.67 C 3.34167 km/h
331 18-12-2020 18:00:00 4.95833 C 6.57 g/m*3 4.96 C 1.6 km/h
332 18-12-2020 19:00:00 4.88333 C 6.55 g/m*3 4.88 C 0.26667 km/h
333 18-12-2020 20:00:00 3.94167 C 6.14 g/m*3 3.94 C 0.4 km/h
334 18-12-2020 21:00:00 3.85 C 6.12 g/m*3 3.85 C 1.2 km/h
335 18-12-2020 22:00:00 5.53333 C 6.9 g/m*3 5.53 C 1.88333 km/h
336 18-12-2020 23:00:00 5.90833 C 7.07 g/m*3 5.91 C 0.93333 km/h
337 19-12-2020 00:00:00 4.98333 C 6.6 g/m*3 4.98 C 1.33333 km/h
338 19-12-2020 01:00:00 3.89167 C 6.12 g/m*3 3.89 C 2.26667 km/h
339 19-12-2020 02:00:00 3.79167 C 6.08 g/m*3 3.79 C 2.26667 km/h
340 19-12-2020 03:00:00 4.425 C 6.39 g/m*3 4.43 C 0.4 km/h
341 19-12-2020 04:00:00 4.20833 C 6.26 g/m*3 4.21 C 0.53333 km/h
342 19-12-2020 05:00:00 4.05 C 6.24 g/m*3 4.05 C 0.93333 km/h
343 19-12-2020 06:00:00 3.65833 C 6.04 g/m*3 3.66 C 1.46667 km/h
344 19-12-2020 07:00:00 3.3 C 5.88 g/m*3 3.3 C 1.06667 km/h
345 19-12-2020 08:00:00 2.99167 C 5.78 g/m*3 2.99 C 0 km/h
346 19-12-2020 09:00:00 2.5 C 5.59 g/m*3 2.5 C 0.26667 km/h
347 19-12-2020 10:00:00 2.94167 C 5.78 g/m*3 2.94 C 0.93333 km/h
348 19-12-2020 11:00:00 5.43333 C 6.85 g/m*3 5.43 C 3.46667 km/h
349 19-12-2020 12:00:00 7.04167 C 7.61 g/m*3 7.04 C 3.86667 km/h
350 19-12-2020 13:00:00 8.13333 C 8.19 g/m*3 8.13 C 3.86667 km/h
Sensor: Nr:Datum:Temp:Abs-Feuchte:Windchill:Wind:
Aussen-T/F 351 19-12-2020 14:00:00 9.1 C 8.7 g/m*3 9.1 C 3.33333 km/h
352 19-12-2020 15:00:00 9.36667 C 8.78 g/m*3 9.37 C 3.75 km/h
353 19-12-2020 16:00:00 8.89167 C 8.16 g/m*3 8.89 C 2.26667 km/h
354 19-12-2020 17:00:00 8.525 C 7.89 g/m*3 8.53 C 3.20833 km/h
355 19-12-2020 18:00:00 8.8 C 7.73 g/m*3 8.8 C 4.95833 km/h
356 19-12-2020 19:00:00 8.8 C 7.66 g/m*3 8.8 C 4.275 km/h
357 19-12-2020 20:00:00 8.825 C 7.71 g/m*3 8.82 C 4.68333 km/h
358 19-12-2020 21:00:00 8.75833 C 7.67 g/m*3 8.76 C 4.275 km/h
359 19-12-2020 22:00:00 8.6 C 7.67 g/m*3 8.6 C 1.6 km/h
360 19-12-2020 23:00:00 8.33333 C 7.71 g/m*3 8.33 C 0.93333 km/h
361 20-12-2020 00:00:00 8.25 C 7.69 g/m*3 8.25 C 4.69167 km/h
362 20-12-2020 01:00:00 8.125 C 7.57 g/m*3 8.13 C 1.74167 km/h
363 20-12-2020 02:00:00 8.125 C 7.61 g/m*3 8.13 C 1.06667 km/h
364 20-12-2020 03:00:00 7.89167 C 7.51 g/m*3 7.89 C 2.13333 km/h
365 20-12-2020 04:00:00 8.09167 C 7.65 g/m*3 8.09 C 1.86667 km/h
366 20-12-2020 05:00:00 7.71667 C 7.62 g/m*3 7.72 C 0.26667 km/h
367 20-12-2020 06:00:00 7.5 C 7.6 g/m*3 7.5 C 0 km/h
368 20-12-2020 07:00:00 7.46667 C 7.65 g/m*3 7.47 C 0.13333 km/h
369 20-12-2020 08:00:00 7.25833 C 7.56 g/m*3 7.26 C 1.06667 km/h
370 20-12-2020 09:00:00 7.13333 C 7.5 g/m*3 7.13 C 0 km/h
371 20-12-2020 10:00:00 7.55 C 7.78 g/m*3 7.55 C 0 km/h
372 20-12-2020 11:00:00 8.58333 C 8.33 g/m*3 8.58 C 3.2 km/h
373 20-12-2020 12:00:00 9.65 C 8.85 g/m*3 9.65 C 3.46667 km/h
374 20-12-2020 13:00:00 10.01667 C 8.85 g/m*3 10.02 C 4.95 km/h
375 20-12-2020 14:00:00 10.15833 C 8.83 g/m*3 10.16 C 0.93333 km/h
Sensor: Nr:Datum:Temp:Abs-Feuchte:Windchill:Wind:
Aussen-T/F 376 20-12-2020 15:00:00 9.74167 C 8.6 g/m*3 9.74 C 0.13333 km/h
377 20-12-2020 16:00:00 9.21667 C 8.31 g/m*3 9.22 C 1.86667 km/h
378 20-12-2020 17:00:00 8.66667 C 7.98 g/m*3 8.67 C 3.2 km/h
379 20-12-2020 18:00:00 8.23333 C 7.77 g/m*3 8.23 C 4.4 km/h
380 20-12-2020 19:00:00 7.175 C 7.24 g/m*3 7.18 C 0.93333 km/h
381 20-12-2020 20:00:00 5.85 C 6.76 g/m*3 5.85 C 0.13333 km/h
382 20-12-2020 21:00:00 6.05 C 6.98 g/m*3 6.05 C 0.4 km/h
383 20-12-2020 22:00:00 6.26667 C 7.12 g/m*3 6.27 C 2.675 km/h
384 20-12-2020 23:00:00 7.01667 C 7.48 g/m*3 6.03 C 6.025 km/h
385 21-12-2020 00:00:00 7.05 C 7.38 g/m*3 7.05 C 3.33333 km/h
386 21-12-2020 01:00:00 5.825 C 6.74 g/m*3 5.83 C 0 km/h
387 21-12-2020 02:00:00 4.99167 C 6.47 g/m*3 4.99 C 0 km/h
388 21-12-2020 03:00:00 4.29167 C 6.2 g/m*3 4.29 C 0 km/h
389 21-12-2020 04:00:00 4.7 C 6.43 g/m*3 4.7 C 0 km/h
390 21-12-2020 05:00:00 4.725 C 6.43 g/m*3 4.72 C 0 km/h
391 21-12-2020 06:00:00 4.25 C 6.24 g/m*3 4.25 C 1.2 km/h
392 21-12-2020 07:00:00 5.8 C 6.97 g/m*3 5.8 C 2.26667 km/h
393 21-12-2020 08:00:00 5.26667 C 6.7 g/m*3 5.27 C 0 km/h
394 21-12-2020 09:00:00 5.26667 C 6.71 g/m*3 5.27 C 0.26667 km/h
395 21-12-2020 10:00:00 6.13333 C 7.1 g/m*3 6.13 C 0.66667 km/h
396 21-12-2020 11:00:00 7.39167 C 7.71 g/m*3 7.39 C 1.86667 km/h
397 21-12-2020 12:00:00 8.575 C 8.16 g/m*3 8.57 C 3.33333 km/h
398 21-12-2020 13:00:00 9.71667 C 8.17 g/m*3 9.72 C 4.95 km/h
399 21-12-2020 14:00:00 9.8 C 8.05 g/m*3 9.8 C 0.93333 km/h
400 21-12-2020 15:00:00 8.90833 C 8.06 g/m*3 8.91 C 0.4 km/h
Sensor: Nr:Datum:Temp:Abs-Feuchte:Windchill:Wind:
Aussen-T/F 401 21-12-2020 16:00:00 8.23333 C 7.88 g/m*3 8.23 C 0.13333 km/h
402 21-12-2020 17:00:00 7.86667 C 7.81 g/m*3 7.87 C 0.66667 km/h
403 21-12-2020 18:00:00 7.99167 C 7.93 g/m*3 7.99 C 2.13333 km/h
404 21-12-2020 19:00:00 8.18333 C 8.05 g/m*3 8.18 C 1.2 km/h
405 21-12-2020 20:00:00 8.35833 C 8.21 g/m*3 8.36 C 1.46667 km/h
406 21-12-2020 21:00:00 8.75 C 8.42 g/m*3 8.1 C 5.76667 km/h
407 21-12-2020 22:00:00 9.26667 C 8.69 g/m*3 7.97 C 8.86667 km/h
408 21-12-2020 23:00:00 9.69167 C 8.85 g/m*3 9.69 C 4.14167 km/h
409 22-12-2020 00:00:00 10.33333 C 9.18 g/m*3 8.83 C 11.275 km/h
410 22-12-2020 01:00:00 11.35 C 9.56 g/m*3 11.35 C 15.43333 km/h
411 22-12-2020 02:00:00 11.99167 C 9.88 g/m*3 11.99 C 14.5 km/h
412 22-12-2020 03:00:00 12.76667 C 10.2 g/m*3 12.77 C 17.30833 km/h
413 22-12-2020 04:00:00 13.18333 C 10.39 g/m*3 13.18 C 14.63333 km/h
414 22-12-2020 05:00:00 13.225 C 10.57 g/m*3 13.23 C 19.03333 km/h
415 22-12-2020 06:00:00 13.41667 C 10.66 g/m*3 13.42 C 18.5 km/h
416 22-12-2020 07:00:00 13.6 C 10.71 g/m*3 13.6 C 15.56667 km/h
417 22-12-2020 08:00:00 13.51667 C 10.65 g/m*3 13.52 C 16.76667 km/h
418 22-12-2020 09:00:00 13.64167 C 10.74 g/m*3 13.64 C 14.63333 km/h
419 22-12-2020 10:00:00 13.85833 C 10.95 g/m*3 13.86 C 14.36667 km/h
420 22-12-2020 11:00:00 14.25833 C 11.22 g/m*3 14.26 C 12.76667 km/h
421 22-12-2020 12:00:00 14.46667 C 11.39 g/m*3 14.47 C 13.425 km/h
422 22-12-2020 13:00:00 14.80833 C 11.39 g/m*3 14.81 C 13.3 km/h
423 22-12-2020 14:00:00 14.81667 C 11.31 g/m*3 14.82 C 14.23333 km/h
424 22-12-2020 15:00:00 14.48333 C 11.23 g/m*3 14.48 C 11.7 km/h
425 22-12-2020 16:00:00 14.025 C 11.01 g/m*3 14.03 C 8.86667 km/h
Sensor: Nr:Datum:Temp:Abs-Feuchte:Windchill:Wind:
Aussen-T/F 426 22-12-2020 17:00:00 13.59167 C 10.79 g/m*3 13.59 C 6.58333 km/h
427 22-12-2020 18:00:00 13.20833 C 10.82 g/m*3 13.21 C 2.4 km/h
428 22-12-2020 19:00:00 12.89167 C 10.76 g/m*3 12.89 C 2.26667 km/h
429 22-12-2020 20:00:00 12.35 C 10.46 g/m*3 12.35 C 5.49167 km/h
430 22-12-2020 21:00:00 11.83333 C 10.18 g/m*3 11.83 C 2.4 km/h
431 22-12-2020 22:00:00 11.675 C 10.13 g/m*3 11.68 C 0 km/h
432 22-12-2020 23:00:00 11.55833 C 10.06 g/m*3 11.56 C 0.26667 km/h
433 23-12-2020 00:00:00 11.65833 C 10.12 g/m*3 11.66 C 0 km/h
434 23-12-2020 01:00:00 11.76667 C 10.19 g/m*3 11.77 C 0.13333 km/h
435 23-12-2020 02:00:00 11.65833 C 10.12 g/m*3 11.66 C 0.53333 km/h
436 23-12-2020 03:00:00 11.65 C 10.11 g/m*3 11.65 C 0 km/h
437 23-12-2020 04:00:00 11.61667 C 10.14 g/m*3 11.62 C 0.66667 km/h
438 23-12-2020 05:00:00 11.49167 C 10.07 g/m*3 11.49 C 0.13333 km/h
439 23-12-2020 06:00:00 11.23333 C 9.89 g/m*3 11.23 C 0 km/h
440 23-12-2020 07:00:00 11.275 C 9.98 g/m*3 11.28 C 0.93333 km/h
441 23-12-2020 08:00:00 11.55 C 10.15 g/m*3 11.55 C 2 km/h
442 23-12-2020 09:00:00 11.6 C 10.19 g/m*3 11.6 C 0.4 km/h
443 23-12-2020 10:00:00 11.875 C 10.36 g/m*3 11.88 C 1.06667 km/h
444 23-12-2020 11:00:00 12.45 C 10.74 g/m*3 12.45 C 0.13333 km/h
445 23-12-2020 12:00:00 12.6 C 10.84 g/m*3 12.6 C 0 km/h
446 23-12-2020 13:00:00 12.81667 C 10.99 g/m*3 12.82 C 0.53333 km/h
447 23-12-2020 14:00:00 12.825 C 10.99 g/m*3 12.83 C 2 km/h
448 23-12-2020 15:00:00 12.55833 C 10.81 g/m*3 12.56 C 2.4 km/h
449 23-12-2020 16:00:00 12.03333 C 10.47 g/m*3 12.03 C 2.8 km/h
450 23-12-2020 17:00:00 11.59167 C 10.18 g/m*3 11.59 C 3.2 km/h
Sensor: Nr:Datum:Temp:Abs-Feuchte:Windchill:Wind:
Aussen-T/F 451 23-12-2020 18:00:00 11.30833 C 10 g/m*3 11.31 C 6.3 km/h
452 23-12-2020 19:00:00 11.44167 C 9.95 g/m*3 11.44 C 13.95833 km/h
453 23-12-2020 20:00:00 11.61667 C 9.79 g/m*3 11.62 C 11.03333 km/h
454 23-12-2020 21:00:00 11.71667 C 9.73 g/m*3 11.72 C 9.69167 km/h
455 23-12-2020 22:00:00 11.575 C 9.66 g/m*3 11.58 C 8.175 km/h
456 23-12-2020 23:00:00 11.025 C 8.76 g/m*3 11.03 C 14.36667 km/h
457 24-12-2020 00:00:00 9.8 C 7.96 g/m*3 7.92 C 13.03333 km/h
458 24-12-2020 01:00:00 8.88333 C 7.46 g/m*3 7.03 C 11.56667 km/h
459 24-12-2020 02:00:00 8.60833 C 7.33 g/m*3 6.39 C 13.56667 km/h
460 24-12-2020 03:00:00 8.13333 C 7.19 g/m*3 6.1 C 11.69167 km/h
461 24-12-2020 04:00:00 8.075 C 7.08 g/m*3 6.17 C 10.89167 km/h
462 24-12-2020 05:00:00 8.225 C 7.02 g/m*3 6.04 C 12.76667 km/h
463 24-12-2020 06:00:00 7.94167 C 7.16 g/m*3 6.91 C 6.71667 km/h
464 24-12-2020 07:00:00 7.975 C 7.2 g/m*3 5.68 C 13.16667 km/h
465 24-12-2020 08:00:00 7.7 C 7.23 g/m*3 5.95 C 9.68333 km/h
466 24-12-2020 09:00:00 7.39167 C 7.3 g/m*3 5.96 C 7.91667 km/h
467 24-12-2020 10:00:00 7.55 C 7.46 g/m*3 6.38 C 6.975 km/h
468 24-12-2020 11:00:00 8.225 C 7.6 g/m*3 7.1 C 7.25 km/h
469 24-12-2020 12:00:00 8.48333 C 7.41 g/m*3 7.27 C 7.79167 km/h
470 24-12-2020 13:00:00 8.96667 C 7.51 g/m*3 8.13 C 6.55833 km/h
471 24-12-2020 14:00:00 6.775 C 6.91 g/m*3 3.77 C 16.23333 km/h
472 24-12-2020 15:00:00 5.28333 C 6.42 g/m*3 3.04 C 9.81667 km/h
473 24-12-2020 16:00:00 4.88333 C 6.32 g/m*3 4.88 C 4.825 km/h
474 24-12-2020 17:00:00 4.525 C 6.19 g/m*3 4.53 C 4.28333 km/h
475 24-12-2020 18:00:00 4.46667 C 6.22 g/m*3 4.47 C 3.08333 km/h
Sensor: Nr:Datum:Temp:Abs-Feuchte:Windchill:Wind:
Aussen-T/F 476 24-12-2020 19:00:00 4.68333 C 6.36 g/m*3 4.68 C 3.34167 km/h
477 24-12-2020 20:00:00 4.3 C 6.16 g/m*3 2.48 C 7.38333 km/h
478 24-12-2020 21:00:00 4.29167 C 6.19 g/m*3 4.29 C 4.275 km/h
479 24-12-2020 22:00:00 4.35833 C 6.22 g/m*3 4.36 C 4.69167 km/h
480 24-12-2020 23:00:00 4.55833 C 6.28 g/m*3 3.3 C 5.75833 km/h
481 25-12-2020 00:00:00 4.6 C 6.26 g/m*3 2.95 C 6.975 km/h
482 25-12-2020 01:00:00 4.44167 C 6.15 g/m*3 3.36 C 5.21667 km/h
483 25-12-2020 02:00:00 4.30833 C 6.1 g/m*3 4.31 C 4.14167 km/h
484 25-12-2020 03:00:00 4.35 C 6.12 g/m*3 4.35 C 3.33333 km/h
485 25-12-2020 04:00:00 4.30833 C 6.03 g/m*3 2.27 C 8.19167 km/h
486 25-12-2020 05:00:00 4.19167 C 5.86 g/m*3 2.98 C 5.49167 km/h
487 25-12-2020 06:00:00 3.89167 C 5.69 g/m*3 2.09 C 7.10833 km/h
488 25-12-2020 07:00:00 3.74167 C 5.52 g/m*3 1.57 C 8.33333 km/h
489 25-12-2020 08:00:00 3.275 C 5.29 g/m*3 1.05 C 8.19167 km/h
490 25-12-2020 09:00:00 3.1 C 5.21 g/m*3 1.38 C 6.44167 km/h
491 25-12-2020 10:00:00 2.89167 C 5.14 g/m*3 2.89 C 4.825 km/h
492 25-12-2020 11:00:00 2.675 C 5.19 g/m*3 0.94 C 6.3 km/h
493 25-12-2020 12:00:00 3.9 C 5.57 g/m*3 1.65 C 8.73333 km/h
494 25-12-2020 13:00:00 4.08333 C 5.65 g/m*3 1.9 C 8.60833 km/h
495 25-12-2020 14:00:00 4.35833 C 5.68 g/m*3 2.33 C 8.2 km/h
496 25-12-2020 15:00:00 4.46667 C 5.76 g/m*3 4.47 C 3.49167 km/h
497 25-12-2020 16:00:00 3.40833 C 5.52 g/m*3 3.41 C 1.2 km/h
498 25-12-2020 17:00:00 2.11667 C 5.17 g/m*3 2.12 C 1.73333 km/h
499 25-12-2020 18:00:00 1.625 C 5.1 g/m*3 1.63 C 3.46667 km/h
500 25-12-2020 19:00:00 1.475 C 5.09 g/m*3 1.48 C 0.8 km/h
Sensor: Nr:Datum:Temp:Abs-Feuchte:Windchill:Wind:
Aussen-T/F 501 25-12-2020 20:00:00 2.00833 C 5.33 g/m*3 2.01 C 2.26667 km/h
502 25-12-2020 21:00:00 2.29167 C 5.43 g/m*3 2.29 C 0.8 km/h
503 25-12-2020 22:00:00 2.23333 C 5.41 g/m*3 2.23 C 0.26667 km/h
504 25-12-2020 23:00:00 2.575 C 5.55 g/m*3 2.58 C 0.26667 km/h
505 26-12-2020 00:00:00 2.64167 C 5.57 g/m*3 2.64 C 0 km/h
506 26-12-2020 01:00:00 2.48333 C 5.48 g/m*3 2.48 C 2.80833 km/h
507 26-12-2020 02:00:00 2.3 C 5.39 g/m*3 0.19 C 7.25833 km/h
508 26-12-2020 03:00:00 2.275 C 5.38 g/m*3 0.68 C 5.75833 km/h
509 26-12-2020 04:00:00 2.15833 C 5.34 g/m*3 2.16 C 3.06667 km/h
510 26-12-2020 05:00:00 1.975 C 5.27 g/m*3 1.98 C 0 km/h
511 26-12-2020 06:00:00 1.39167 C 5.06 g/m*3 1.39 C 0.26667 km/h
512 26-12-2020 07:00:00 0.95833 C 4.93 g/m*3 0.96 C 0.13333 km/h
513 26-12-2020 08:00:00 0.83333 C 4.93 g/m*3 0.83 C 0.8 km/h
514 26-12-2020 09:00:00 1.775 C 5.26 g/m*3 1.78 C 2.26667 km/h
515 26-12-2020 10:00:00 2.60833 C 5.55 g/m*3 2.61 C 1.06667 km/h
516 26-12-2020 11:00:00 3.64167 C 5.79 g/m*3 1.97 C 6.575 km/h
517 26-12-2020 12:00:00 4.375 C 5.71 g/m*3 1.83 C 10.36667 km/h
518 26-12-2020 13:00:00 4.575 C 5.65 g/m*3 2.22 C 9.69167 km/h
519 26-12-2020 14:00:00 4.48333 C 5.52 g/m*3 2.08 C 9.81667 km/h
520 26-12-2020 15:00:00 4.11667 C 5.35 g/m*3 2.12 C 7.925 km/h
521 26-12-2020 16:00:00 3.9 C 5.24 g/m*3 1.58 C 9 km/h
522 26-12-2020 17:00:00 3.9 C 5.25 g/m*3 2.27 C 6.56667 km/h
523 26-12-2020 18:00:00 3.88333 C 5.24 g/m*3 1.56 C 9 km/h
524 26-12-2020 19:00:00 3.43333 C 5.11 g/m*3 1.73 C 6.575 km/h
525 26-12-2020 20:00:00 3.55 C 5.12 g/m*3 1.73 C 6.975 km/h
Sensor: Nr:Datum:Temp:Abs-Feuchte:Windchill:Wind:
Aussen-T/F 526 26-12-2020 21:00:00 3.225 C 5.06 g/m*3 1.49 C 6.56667 km/h
527 26-12-2020 22:00:00 3.025 C 5.06 g/m*3 0.8 C 8.05 km/h
528 26-12-2020 23:00:00 2.9 C 4.98 g/m*3 0.36 C 9.14167 km/h
529 27-12-2020 00:00:00 2.825 C 4.99 g/m*3 0.89 C 6.975 km/h
530 27-12-2020 01:00:00 2.99167 C 5.05 g/m*3 0.3 C 9.81667 km/h
531 27-12-2020 02:00:00 3.25833 C 5.08 g/m*3 1.27 C 7.375 km/h
532 27-12-2020 03:00:00 3.15833 C 5.06 g/m*3 1.9 C 5.21667 km/h
533 27-12-2020 04:00:00 3.24167 C 5.08 g/m*3 1.17 C 7.65833 km/h
534 27-12-2020 05:00:00 3.4 C 5.08 g/m*3 0.83 C 9.66667 km/h
535 27-12-2020 06:00:00 3.44167 C 5.1 g/m*3 1.21 C 8.33333 km/h
536 27-12-2020 07:00:00 3.55 C 5.22 g/m*3 1.73 C 6.98333 km/h
537 27-12-2020 08:00:00 3.83333 C 5.3 g/m*3 1.51 C 8.975 km/h
538 27-12-2020 09:00:00 3.88333 C 5.4 g/m*3 1.28 C 10.20833 km/h
539 27-12-2020 10:00:00 3.925 C 5.45 g/m*3 1.82 C 8.18333 km/h
540 27-12-2020 11:00:00 4.56667 C 5.5 g/m*3 1.76 C 11.83333 km/h
541 27-12-2020 12:00:00 4.625 C 5.68 g/m*3 2.4 C 9.15 km/h
542 27-12-2020 13:00:00 4.16667 C 5.78 g/m*3 2.1 C 8.2 km/h
543 27-12-2020 14:00:00 3.9 C 5.78 g/m*3 1.65 C 8.73333 km/h
544 27-12-2020 15:00:00 3.8 C 5.83 g/m*3 1.64 C 8.325 km/h
545 27-12-2020 16:00:00 3.8 C 5.85 g/m*3 2.34 C 6.025 km/h
546 27-12-2020 17:00:00 3.85833 C 5.88 g/m*3 1.47 C 9.25833 km/h
547 27-12-2020 18:00:00 3.74167 C 5.85 g/m*3 2.08 C 6.575 km/h
548 27-12-2020 19:00:00 3.95833 C 5.95 g/m*3 1.68 C 8.875 km/h
549 27-12-2020 20:00:00 4.1 C 6.02 g/m*3 3.03 C 5.08333 km/h
550 27-12-2020 21:00:00 4.13333 C 6.05 g/m*3 3.01 C 5.21667 km/h
Sensor: Nr:Datum:Temp:Abs-Feuchte:Windchill:Wind:
Aussen-T/F 551 27-12-2020 22:00:00 4.1 C 6.08 g/m*3 4.1 C 1.46667 km/h
552 27-12-2020 23:00:00 4.10833 C 6.12 g/m*3 4.11 C 1.6 km/h
553 28-12-2020 00:00:00 4.15 C 6.17 g/m*3 4.15 C 1.6 km/h
554 28-12-2020 01:00:00 4.11667 C 6.15 g/m*3 4.12 C 0.66667 km/h
555 28-12-2020 02:00:00 3.78333 C 6.02 g/m*3 3.78 C 0.53333 km/h
556 28-12-2020 03:00:00 3.66667 C 5.99 g/m*3 3.67 C 1.46667 km/h
557 28-12-2020 04:00:00 3.725 C 6.04 g/m*3 3.73 C 2.01667 km/h
558 28-12-2020 05:00:00 3.86667 C 6.11 g/m*3 3.87 C 0.8 km/h
559 28-12-2020 06:00:00 3.71667 C 6.03 g/m*3 3.72 C 1.06667 km/h
560 28-12-2020 07:00:00 3.08333 C 5.74 g/m*3 3.08 C 0.8 km/h
561 28-12-2020 08:00:00 2 C 5.33 g/m*3 2 C 2.4 km/h
562 28-12-2020 09:00:00 2.55 C 5.59 g/m*3 2.55 C 0.93333 km/h
563 28-12-2020 10:00:00 3.8 C 6.09 g/m*3 3.8 C 0 km/h
564 28-12-2020 11:00:00 4.59167 C 6.42 g/m*3 4.59 C 0.66667 km/h
565 28-12-2020 12:00:00 5.04167 C 6.49 g/m*3 5.04 C 3.33333 km/h
566 28-12-2020 13:00:00 5.59167 C 6.59 g/m*3 5.59 C 0.8 km/h
567 28-12-2020 14:00:00 5.675 C 6.68 g/m*3 5.68 C 1.06667 km/h
568 28-12-2020 15:00:00 5.15 C 6.45 g/m*3 5.15 C 3.48333 km/h
569 28-12-2020 16:00:00 4.68333 C 6.28 g/m*3 4.68 C 3.475 km/h
570 28-12-2020 17:00:00 4.01667 C 6.03 g/m*3 4.02 C 0.8 km/h
571 28-12-2020 18:00:00 3.81667 C 5.99 g/m*3 3.82 C 0.4 km/h
572 28-12-2020 19:00:00 3.21667 C 5.76 g/m*3 3.22 C 1.73333 km/h
573 28-12-2020 20:00:00 1.95 C 5.27 g/m*3 1.95 C 2 km/h
574 28-12-2020 21:00:00 2.64167 C 5.58 g/m*3 2.64 C 0 km/h
575 28-12-2020 22:00:00 1.64167 C 5.2 g/m*3 1.64 C 2.13333 km/h
Sensor: Nr:Datum:Temp:Abs-Feuchte:Windchill:Wind:
Aussen-T/F 576 28-12-2020 23:00:00 1.70833 C 5.25 g/m*3 1.71 C 2.13333 km/h
577 29-12-2020 00:00:00 2.58333 C 5.59 g/m*3 2.58 C 1.875 km/h
578 29-12-2020 01:00:00 2.6 C 5.56 g/m*3 2.6 C 0.8 km/h
579 29-12-2020 02:00:00 2.58333 C 5.55 g/m*3 2.58 C 3.33333 km/h
580 29-12-2020 03:00:00 1.86667 C 5.26 g/m*3 1.87 C 2.4 km/h
581 29-12-2020 04:00:00 2 C 5.35 g/m*3 2 C 0 km/h
582 29-12-2020 05:00:00 2.39167 C 5.48 g/m*3 2.39 C 0 km/h
583 29-12-2020 06:00:00 2.38333 C 5.5 g/m*3 2.38 C 1.73333 km/h
584 29-12-2020 07:00:00 2.64167 C 5.63 g/m*3 1.26 C 5.35833 km/h
585 29-12-2020 08:00:00 2.93333 C 5.74 g/m*3 2.93 C 4.28333 km/h
586 29-12-2020 09:00:00 3.2 C 5.83 g/m*3 0.96 C 8.2 km/h
587 29-12-2020 10:00:00 3.53333 C 5.9 g/m*3 2.08 C 5.89167 km/h
588 29-12-2020 11:00:00 4.03333 C 5.9 g/m*3 0.75 C 13.83333 km/h
589 29-12-2020 12:00:00 4.78333 C 5.98 g/m*3 1.42 C 15.43333 km/h
590 29-12-2020 13:00:00 5.00833 C 5.91 g/m*3 1.88 C 14.23333 km/h
591 29-12-2020 14:00:00 5 C 5.9 g/m*3 3.05 C 8.31667 km/h
592 29-12-2020 15:00:00 4.90833 C 6.05 g/m*3 4.91 C 2.81667 km/h
593 29-12-2020 16:00:00 4.35833 C 5.97 g/m*3 4.36 C 2.4 km/h
594 29-12-2020 17:00:00 3.85 C 5.85 g/m*3 3.85 C 1.73333 km/h
595 29-12-2020 18:00:00 3.13333 C 5.56 g/m*3 3.13 C 1.86667 km/h
596 29-12-2020 19:00:00 2.00833 C 5.22 g/m*3 2.01 C 2.66667 km/h
597 29-12-2020 20:00:00 1.83333 C 5.24 g/m*3 1.83 C 0 km/h
598 29-12-2020 21:00:00 1.65833 C 5.17 g/m*3 1.66 C 0.4 km/h
599 29-12-2020 22:00:00 1.16667 C 5.03 g/m*3 1.17 C 1.2 km/h
600 29-12-2020 23:00:00 1.39167 C 5.12 g/m*3 1.39 C 0 km/h
Sensor: Nr:Datum:Temp:Abs-Feuchte:Windchill:Wind:
Aussen-T/F 601 30-12-2020 00:00:00 1.925 C 5.32 g/m*3 1.93 C 0 km/h
602 30-12-2020 01:00:00 2.025 C 5.34 g/m*3 2.03 C 0 km/h
603 30-12-2020 02:00:00 2.26667 C 5.47 g/m*3 2.27 C 0 km/h
604 30-12-2020 03:00:00 2.54167 C 5.59 g/m*3 2.54 C 0 km/h
605 30-12-2020 04:00:00 2.61667 C 5.62 g/m*3 2.62 C 0 km/h
606 30-12-2020 05:00:00 2.78333 C 5.68 g/m*3 2.78 C 0 km/h
607 30-12-2020 06:00:00 2.96667 C 5.75 g/m*3 2.97 C 0 km/h
608 30-12-2020 07:00:00 3.45833 C 5.95 g/m*3 3.46 C 1.6 km/h
609 30-12-2020 08:00:00 3.625 C 6.01 g/m*3 3.63 C 1.2 km/h
610 30-12-2020 09:00:00 3.78333 C 6.08 g/m*3 3.78 C 1.6 km/h
611 30-12-2020 10:00:00 4.2 C 6.25 g/m*3 4.2 C 2.26667 km/h
612 30-12-2020 11:00:00 4.45 C 6.26 g/m*3 2.95 C 6.43333 km/h
613 30-12-2020 12:00:00 4.75 C 6.18 g/m*3 2.65 C 8.74167 km/h
614 30-12-2020 13:00:00 5.06667 C 5.93 g/m*3 3.27 C 7.78333 km/h
615 30-12-2020 14:00:00 5.675 C 6.07 g/m*3 5.68 C 4.54167 km/h
616 30-12-2020 15:00:00 5.79167 C 5.95 g/m*3 4.23 C 7.375 km/h
617 30-12-2020 16:00:00 5.475 C 5.92 g/m*3 3.68 C 8.05 km/h
618 30-12-2020 17:00:00 4.9 C 5.72 g/m*3 3.22 C 7.24167 km/h
619 30-12-2020 18:00:00 4.65 C 5.7 g/m*3 2.37 C 9.41667 km/h
620 30-12-2020 19:00:00 4.34167 C 5.71 g/m*3 3.2 C 5.35 km/h
621 30-12-2020 20:00:00 4.28333 C 5.7 g/m*3 2.89 C 6.04167 km/h
622 30-12-2020 21:00:00 4.23333 C 5.7 g/m*3 4.23 C 4.55 km/h
623 30-12-2020 22:00:00 4 C 5.66 g/m*3 4 C 2 km/h
624 30-12-2020 23:00:00 4.01667 C 5.7 g/m*3 4.02 C 1.875 km/h
625 31-12-2020 00:00:00 4.03333 C 5.68 g/m*3 4.03 C 1.46667 km/h
Sensor: Nr:Datum:Temp:Abs-Feuchte:Windchill:Wind:
Aussen-T/F 626 31-12-2020 01:00:00 3.43333 C 5.53 g/m*3 3.43 C 0.66667 km/h
627 31-12-2020 02:00:00 3.175 C 5.51 g/m*3 3.18 C 1.46667 km/h
628 31-12-2020 03:00:00 2.84167 C 5.4 g/m*3 2.84 C 0.66667 km/h
629 31-12-2020 04:00:00 2.78333 C 5.39 g/m*3 2.78 C 0 km/h
630 31-12-2020 05:00:00 2.80833 C 5.44 g/m*3 2.81 C 0.26667 km/h
631 31-12-2020 06:00:00 2.95833 C 5.56 g/m*3 2.96 C 0 km/h
632 31-12-2020 07:00:00 2.79167 C 5.51 g/m*3 2.79 C 1.06667 km/h
633 31-12-2020 08:00:00 2.69167 C 5.47 g/m*3 2.69 C 2.53333 km/h
634 31-12-2020 09:00:00 2.68333 C 5.48 g/m*3 2.68 C 1.06667 km/h
635 31-12-2020 10:00:00 3.16667 C 5.66 g/m*3 3.17 C 0.93333 km/h
636 31-12-2020 11:00:00 3.75833 C 5.72 g/m*3 3.76 C 3.6 km/h
637 31-12-2020 12:00:00 4.05 C 5.77 g/m*3 4.05 C 3.21667 km/h
638 31-12-2020 13:00:00 3.79167 C 5.75 g/m*3 3.79 C 1.2 km/h
639 31-12-2020 14:00:00 3.85833 C 5.82 g/m*3 3.86 C 0.53333 km/h
640 31-12-2020 15:00:00 3.59167 C 5.71 g/m*3 3.59 C 0.66667 km/h
641 31-12-2020 16:00:00 3 C 5.56 g/m*3 3 C 0.26667 km/h
642 31-12-2020 17:00:00 2.73333 C 5.52 g/m*3 2.73 C 0.13333 km/h
643 31-12-2020 18:00:00 2.71667 C 5.54 g/m*3 2.72 C 0 km/h
644 31-12-2020 19:00:00 2.625 C 5.51 g/m*3 2.63 C 0.26667 km/h
645 31-12-2020 20:00:00 2.38333 C 5.42 g/m*3 2.38 C 0 km/h
646 31-12-2020 21:00:00 2.225 C 5.4 g/m*3 2.23 C 0 km/h
647 31-12-2020 22:00:00 2.15 C 5.37 g/m*3 2.15 C 0 km/h
648 31-12-2020 23:00:00 1.26667 C 5.02 g/m*3 1.27 C 0 km/h
649 01-01-2021 00:00:00 1.1 C 5.01 g/m*3 1.1 C 0 km/h
650 01-01-2021 01:00:00 1.16667 C 5.04 g/m*3 1.17 C 0 km/h
Sensor: Nr:Datum:Temp:Abs-Feuchte:Windchill:Wind:
Aussen-T/F 651 01-01-2021 02:00:00 1.425 C 5.13 g/m*3 1.43 C 0 km/h
652 01-01-2021 03:00:00 1.725 C 5.25 g/m*3 1.73 C 0.13333 km/h
653 01-01-2021 04:00:00 1.88333 C 5.35 g/m*3 1.88 C 1.46667 km/h
654 01-01-2021 05:00:00 2.05833 C 5.41 g/m*3 2.06 C 0.53333 km/h
655 01-01-2021 06:00:00 2.24167 C 5.48 g/m*3 2.24 C 0 km/h
656 01-01-2021 07:00:00 2.425 C 5.55 g/m*3 2.42 C 0.26667 km/h
657 01-01-2021 08:00:00 2.5 C 5.58 g/m*3 2.5 C 0.26667 km/h
658 01-01-2021 09:00:00 2.55 C 5.59 g/m*3 2.55 C 0 km/h
659 01-01-2021 10:00:00 2.73333 C 5.66 g/m*3 2.73 C 0 km/h
660 01-01-2021 11:00:00 2.99167 C 5.76 g/m*3 2.99 C 2.53333 km/h
661 01-01-2021 12:00:00 2.95 C 5.75 g/m*3 2.95 C 2 km/h
662 01-01-2021 13:00:00 3.025 C 5.72 g/m*3 3.03 C 2 km/h
663 01-01-2021 14:00:00 3.075 C 5.74 g/m*3 3.08 C 0.53333 km/h
664 01-01-2021 15:00:00 3.13333 C 5.76 g/m*3 3.13 C 1.2 km/h
665 01-01-2021 16:00:00 2.9 C 5.67 g/m*3 2.9 C 0.8 km/h
666 01-01-2021 17:00:00 2.68333 C 5.59 g/m*3 2.68 C 0 km/h
667 01-01-2021 18:00:00 2.525 C 5.53 g/m*3 2.53 C 0 km/h
668 01-01-2021 19:00:00 1.80833 C 5.27 g/m*3 1.81 C 0 km/h
669 01-01-2021 20:00:00 1.26667 C 5.07 g/m*3 1.27 C 0 km/h
670 01-01-2021 21:00:00 0.8 C 4.91 g/m*3 0.8 C 0 km/h
671 01-01-2021 22:00:00 0.60833 C 4.88 g/m*3 0.61 C 0 km/h
672 01-01-2021 23:00:00 0.76667 C 4.95 g/m*3 0.77 C 0 km/h
673 02-01-2021 00:00:00 0.80833 C 4.97 g/m*3 0.81 C 1.2 km/h
674 02-01-2021 01:00:00 0.75 C 4.95 g/m*3 0.75 C 1.33333 km/h
675 02-01-2021 02:00:00 0.75833 C 4.95 g/m*3 0.76 C 0 km/h
Sensor: Nr:Datum:Temp:Abs-Feuchte:Windchill:Wind:
Aussen-T/F 676 02-01-2021 03:00:00 0.675 C 4.92 g/m*3 0.68 C 0.8 km/h
677 02-01-2021 04:00:00 0.375 C 4.82 g/m*3 0.38 C 2 km/h
678 02-01-2021 05:00:00 0.325 C 4.81 g/m*3 0.33 C 3.06667 km/h
679 02-01-2021 06:00:00 0.425 C 4.84 g/m*3 0.43 C 3.46667 km/h
680 02-01-2021 07:00:00 0.40833 C 4.83 g/m*3 0.41 C 3.86667 km/h
681 02-01-2021 08:00:00 0.4 C 4.83 g/m*3 0.4 C 1.86667 km/h
682 02-01-2021 09:00:00 0.53333 C 4.88 g/m*3 0.53 C 1.06667 km/h
683 02-01-2021 10:00:00 0.81667 C 4.97 g/m*3 0.82 C 0.8 km/h
684 02-01-2021 11:00:00 1.3 C 5.13 g/m*3 1.3 C 0.4 km/h
685 02-01-2021 12:00:00 1.85 C 5.27 g/m*3 1.85 C 0.8 km/h
686 02-01-2021 13:00:00 2.23333 C 5.33 g/m*3 2.23 C 1.33333 km/h
687 02-01-2021 14:00:00 2.425 C 5.38 g/m*3 2.42 C 0.66667 km/h
688 02-01-2021 15:00:00 2.65 C 5.46 g/m*3 2.65 C 1.6 km/h
689 02-01-2021 16:00:00 2.525 C 5.41 g/m*3 2.53 C 0.4 km/h
690 02-01-2021 17:00:00 2.18333 C 5.34 g/m*3 2.18 C 0.4 km/h
691 02-01-2021 18:00:00 2.03333 C 5.29 g/m*3 2.03 C 0 km/h
692 02-01-2021 19:00:00 1.95833 C 5.3 g/m*3 1.96 C 0 km/h
693 02-01-2021 20:00:00 1.9 C 5.3 g/m*3 1.9 C 0 km/h
694 02-01-2021 21:00:00 1.89167 C 5.3 g/m*3 1.89 C 0 km/h
695 02-01-2021 22:00:00 1.8 C 5.26 g/m*3 1.8 C 0 km/h
696 02-01-2021 23:00:00 1.8 C 5.26 g/m*3 1.8 C 0 km/h
697 03-01-2021 00:00:00 1.88333 C 5.29 g/m*3 1.88 C 0 km/h
698 03-01-2021 01:00:00 1.8 C 5.26 g/m*3 1.8 C 3.20833 km/h
699 03-01-2021 02:00:00 1.74167 C 5.18 g/m*3 1.74 C 1.73333 km/h
700 03-01-2021 03:00:00 2.04167 C 5.04 g/m*3 2.04 C 2.53333 km/h
Sensor: Nr:Datum:Temp:Abs-Feuchte:Windchill:Wind:
Aussen-T/F 701 03-01-2021 04:00:00 2.26667 C 5.06 g/m*3 2.27 C 2.66667 km/h
702 03-01-2021 05:00:00 2.11667 C 5.09 g/m*3 2.12 C 0.66667 km/h
703 03-01-2021 06:00:00 2.05833 C 5.1 g/m*3 2.06 C 0.93333 km/h
704 03-01-2021 07:00:00 1.99167 C 5.03 g/m*3 1.99 C 1.46667 km/h
705 03-01-2021 08:00:00 2.29167 C 4.99 g/m*3 2.29 C 1.73333 km/h
706 03-01-2021 09:00:00 2.375 C 5.09 g/m*3 2.38 C 0 km/h
707 03-01-2021 10:00:00 2.60833 C 5.12 g/m*3 2.61 C 1.60833 km/h
708 03-01-2021 11:00:00 3.08333 C 5.17 g/m*3 3.08 C 3.875 km/h
709 03-01-2021 12:00:00 3.375 C 5.2 g/m*3 1.53 C 6.975 km/h
710 03-01-2021 13:00:00 3.49167 C 5.26 g/m*3 3.49 C 3.74167 km/h
711 03-01-2021 14:00:00 3.71667 C 5.34 g/m*3 2.39 C 5.61667 km/h
712 03-01-2021 15:00:00 3.75 C 5.42 g/m*3 3.75 C 3.2 km/h
713 03-01-2021 16:00:00 3.51667 C 5.43 g/m*3 3.52 C 4.00833 km/h
714 03-01-2021 17:00:00 3.25833 C 5.43 g/m*3 3.26 C 0.93333 km/h
715 03-01-2021 18:00:00 2.925 C 5.43 g/m*3 2.93 C 0.26667 km/h
716 03-01-2021 19:00:00 2.66667 C 5.41 g/m*3 2.67 C 0.53333 km/h
717 03-01-2021 20:00:00 2.51667 C 5.41 g/m*3 2.52 C 0.13333 km/h
718 03-01-2021 21:00:00 2.46667 C 5.39 g/m*3 2.47 C 0.4 km/h
719 03-01-2021 22:00:00 2.375 C 5.36 g/m*3 2.38 C 0 km/h
720 03-01-2021 23:00:00 2.3 C 5.34 g/m*3 2.3 C 0 km/h
721 04-01-2021 00:00:00 2.225 C 5.36 g/m*3 2.23 C 0 km/h
722 04-01-2021 01:00:00 2.06667 C 5.3 g/m*3 2.07 C 0 km/h
723 04-01-2021 02:00:00 1.85833 C 5.23 g/m*3 1.86 C 0.13333 km/h
724 04-01-2021 03:00:00 1.78333 C 5.2 g/m*3 1.78 C 0.13333 km/h
725 04-01-2021 04:00:00 1.63333 C 5.19 g/m*3 1.63 C 0 km/h
Sensor: Nr:Datum:Temp:Abs-Feuchte:Windchill:Wind:
Aussen-T/F 726 04-01-2021 05:00:00 1.39167 C 5.1 g/m*3 1.39 C 0 km/h
727 04-01-2021 06:00:00 1.06667 C 4.99 g/m*3 1.07 C 0 km/h
728 04-01-2021 07:00:00 0.90833 C 4.95 g/m*3 0.91 C 0 km/h
729 04-01-2021 08:00:00 0.96667 C 4.97 g/m*3 0.97 C 0 km/h
730 04-01-2021 09:00:00 1.14167 C 5.03 g/m*3 1.14 C 0 km/h
731 04-01-2021 10:00:00 1.31667 C 5.09 g/m*3 1.32 C 0.13333 km/h
732 04-01-2021 11:00:00 1.60833 C 5.23 g/m*3 1.61 C 0 km/h
733 04-01-2021 12:00:00 1.81667 C 5.32 g/m*3 1.82 C 0.13333 km/h
734 04-01-2021 13:00:00 1.975 C 5.38 g/m*3 1.98 C 0.53333 km/h
735 04-01-2021 14:00:00 2.025 C 5.4 g/m*3 2.03 C 0.26667 km/h
736 04-01-2021 15:00:00 2 C 5.39 g/m*3 2 C 0.26667 km/h
737 04-01-2021 16:00:00 1.93333 C 5.37 g/m*3 1.93 C 0 km/h
738 04-01-2021 17:00:00 1.80833 C 5.32 g/m*3 1.81 C 0 km/h
739 04-01-2021 18:00:00 1.8 C 5.32 g/m*3 1.8 C 0.66667 km/h
740 04-01-2021 19:00:00 1.8 C 5.32 g/m*3 1.8 C 1.06667 km/h
741 04-01-2021 20:00:00 1.75 C 5.3 g/m*3 1.75 C 0 km/h
742 04-01-2021 21:00:00 1.70833 C 5.28 g/m*3 1.71 C 0 km/h
743 04-01-2021 22:00:00 1.775 C 5.31 g/m*3 1.78 C 0 km/h
744 04-01-2021 23:00:00 1.8 C 5.32 g/m*3 1.8 C 0.53333 km/h
745 05-01-2021 00:00:00 1.84167 C 5.33 g/m*3 1.84 C 0.4 km/h
746 05-01-2021 01:00:00 1.9 C 5.35 g/m*3 1.9 C 0.4 km/h
747 05-01-2021 02:00:00 1.9 C 5.35 g/m*3 1.9 C 0.53333 km/h
748 05-01-2021 03:00:00 1.99167 C 5.38 g/m*3 1.99 C 0.13333 km/h
749 05-01-2021 04:00:00 2.1 C 5.37 g/m*3 2.1 C 0 km/h
750 05-01-2021 05:00:00 2.08333 C 5.36 g/m*3 2.08 C 0 km/h
Sensor: Nr:Datum:Temp:Abs-Feuchte:Windchill:Wind:
Aussen-T/F 751 05-01-2021 06:00:00 2.1 C 5.37 g/m*3 2.1 C 0 km/h
752 05-01-2021 07:00:00 2.08333 C 5.36 g/m*3 2.08 C 0.26667 km/h
753 05-01-2021 08:00:00 2.05 C 5.35 g/m*3 2.05 C 0.13333 km/h
754 05-01-2021 09:00:00 2.15 C 5.39 g/m*3 2.15 C 0.13333 km/h
755 05-01-2021 10:00:00 2.34167 C 5.46 g/m*3 2.34 C 0.93333 km/h
756 05-01-2021 11:00:00 2.65833 C 5.49 g/m*3 2.66 C 1.2 km/h
757 05-01-2021 12:00:00 2.88333 C 5.48 g/m*3 2.88 C 4.54167 km/h
758 05-01-2021 13:00:00 3.03333 C 5.54 g/m*3 3.03 C 0.26667 km/h
759 05-01-2021 14:00:00 3.25 C 5.62 g/m*3 3.25 C 0 km/h
760 05-01-2021 15:00:00 3.3 C 5.64 g/m*3 3.3 C 0 km/h
761 05-01-2021 16:00:00 3.20833 C 5.61 g/m*3 3.21 C 0 km/h
762 05-01-2021 17:00:00 3.05 C 5.59 g/m*3 3.05 C 0 km/h
763 05-01-2021 18:00:00 2.90833 C 5.56 g/m*3 2.91 C 0 km/h
764 05-01-2021 19:00:00 2.9 C 5.61 g/m*3 2.9 C 0 km/h
765 05-01-2021 20:00:00 2.9 C 5.61 g/m*3 2.9 C 0 km/h
766 05-01-2021 21:00:00 2.9 C 5.61 g/m*3 2.9 C 0 km/h
767 05-01-2021 22:00:00 2.68333 C 5.52 g/m*3 2.68 C 0 km/h
768 05-01-2021 23:00:00 2.36667 C 5.43 g/m*3 2.37 C 0.26667 km/h

Maximal/Minimal-Werte vom 05.12.2020 - 05.01.2021

Sensor Min Max Avg
Temp
(Aussen-T/F)
-1.9 °C
10-12-2020  08:40:00
14.9 °C
22-12-2020  13:40:00
4.77 °C
Abs-Feuchte
(Aussen-T/F)
4.05 g/m*3
10-12-2020  09:00:00
11.39 g/m*3
22-12-2020  12:00:00
6.39 g/m*3
Windchill
(Aussen-T/F)
-1.85 C
10-12-2020  09:00:00
14.82 C
22-12-2020  14:00:00
4.49 C

Die Daten stammen von einer Davis Vantage Pro 2 Wetter-Station und werden unter Linux mit der Software wview2wettercgi und aufbereitet. Alle Angaben erfolgen ohne Gewähr für ihre Vollständigkeit oder Richtigkeit.
Kontakt: Rainer Krienke krienke@uni-koblenz.de . Meine Webseiten an der Uni Koblenz oder privat.
Version: $Revision: 0.78 $